sensor_id;sensor_type;location;lat;lon;timestamp;P1;P2;P0
12246;PMS7003;6186;52.022;4.692;2023-04-06T00:00:37;18.00;15.00;10.00
12246;PMS7003;6186;52.022;4.692;2023-04-06T00:03:02;19.33;17.33;11.00
12246;PMS7003;6186;52.022;4.692;2023-04-06T00:05:27;15.67;13.33;8.00
12246;PMS7003;6186;52.022;4.692;2023-04-06T00:07:53;22.33;19.67;10.00
12246;PMS7003;6186;52.022;4.692;2023-04-06T00:10:18;18.33;14.00;9.33
12246;PMS7003;6186;52.022;4.692;2023-04-06T00:12:43;14.67;12.33;8.00
12246;PMS7003;6186;52.022;4.692;2023-04-06T00:15:08;17.00;13.00;8.00
12246;PMS7003;6186;52.022;4.692;2023-04-06T00:17:34;16.67;16.00;10.33
12246;PMS7003;6186;52.022;4.692;2023-04-06T00:19:59;18.67;16.33;8.00
12246;PMS7003;6186;52.022;4.692;2023-04-06T00:22:24;15.00;15.00;10.00
12246;PMS7003;6186;52.022;4.692;2023-04-06T00:24:50;19.33;16.33;8.00
12246;PMS7003;6186;52.022;4.692;2023-04-06T00:27:15;17.67;17.67;10.67
12246;PMS7003;6186;52.022;4.692;2023-04-06T00:29:40;15.33;13.00;7.67
12246;PMS7003;6186;52.022;4.692;2023-04-06T00:32:05;13.33;12.00;8.00
12246;PMS7003;6186;52.022;4.692;2023-04-06T00:34:31;17.33;15.00;7.67
12246;PMS7003;6186;52.022;4.692;2023-04-06T00:36:56;17.00;13.33;7.00
12246;PMS7003;6186;52.022;4.692;2023-04-06T00:39:21;17.33;15.00;9.33
12246;PMS7003;6186;52.022;4.692;2023-04-06T00:41:49;16.33;15.33;8.00
12246;PMS7003;6186;52.022;4.692;2023-04-06T00:44:16;16.75;14.75;8.50
12246;PMS7003;6186;52.022;4.692;2023-04-06T00:46:41;17.00;15.00;8.00
12246;PMS7003;6186;52.022;4.692;2023-04-06T00:49:06;15.33;12.67;8.00
12246;PMS7003;6186;52.022;4.692;2023-04-06T00:51:32;18.00;15.00;7.33
12246;PMS7003;6186;52.022;4.692;2023-04-06T00:53:57;18.67;17.00;9.33
12246;PMS7003;6186;52.022;4.692;2023-04-06T00:56:22;15.67;13.67;7.33
12246;PMS7003;6186;52.022;4.692;2023-04-06T00:58:48;16.00;14.00;8.67
12246;PMS7003;6186;52.022;4.692;2023-04-06T01:01:13;15.33;13.00;7.00
12246;PMS7003;6186;52.022;4.692;2023-04-06T01:03:38;15.00;13.33;8.33
12246;PMS7003;6186;52.022;4.692;2023-04-06T01:06:03;14.33;13.33;7.00
12246;PMS7003;6186;52.022;4.692;2023-04-06T01:08:29;19.00;16.33;10.00
12246;PMS7003;6186;52.022;4.692;2023-04-06T01:10:54;17.67;16.00;8.33
12246;PMS7003;6186;52.022;4.692;2023-04-06T01:13:19;18.67;14.00;7.00
12246;PMS7003;6186;52.022;4.692;2023-04-06T01:15:44;14.67;12.33;7.00
12246;PMS7003;6186;52.022;4.692;2023-04-06T01:18:11;13.75;13.00;8.50
12246;PMS7003;6186;52.022;4.692;2023-04-06T01:20:36;18.00;14.67;9.00
12246;PMS7003;6186;52.022;4.692;2023-04-06T01:23:01;16.67;15.00;8.33
12246;PMS7003;6186;52.022;4.692;2023-04-06T01:25:27;15.33;15.00;10.00
12246;PMS7003;6186;52.022;4.692;2023-04-06T01:27:52;16.00;14.67;8.33
12246;PMS7003;6186;52.022;4.692;2023-04-06T01:30:17;16.33;15.00;10.00
12246;PMS7003;6186;52.022;4.692;2023-04-06T01:32:43;13.67;13.00;7.67
12246;PMS7003;6186;52.022;4.692;2023-04-06T01:35:08;16.75;15.00;8.50
12246;PMS7003;6186;52.022;4.692;2023-04-06T01:37:34;15.33;14.00;8.33
12246;PMS7003;6186;52.022;4.692;2023-04-06T01:39:59;15.00;13.00;7.33
12246;PMS7003;6186;52.022;4.692;2023-04-06T01:42:25;15.75;13.50;7.00
12246;PMS7003;6186;52.022;4.692;2023-04-06T01:44:50;17.00;15.67;8.33
12246;PMS7003;6186;52.022;4.692;2023-04-06T01:47:15;16.00;15.00;10.00
12246;PMS7003;6186;52.022;4.692;2023-04-06T01:49:41;15.67;14.33;8.33
12246;PMS7003;6186;52.022;4.692;2023-04-06T01:52:06;16.00;15.00;9.00
12246;PMS7003;6186;52.022;4.692;2023-04-06T01:54:31;15.33;13.67;7.67
12246;PMS7003;6186;52.022;4.692;2023-04-06T01:56:56;15.33;14.00;7.33
12246;PMS7003;6186;52.022;4.692;2023-04-06T01:59:21;17.67;15.67;7.00
12246;PMS7003;6186;52.022;4.692;2023-04-06T02:01:47;15.33;14.33;9.00
12246;PMS7003;6186;52.022;4.692;2023-04-06T02:04:12;15.67;14.67;7.67
12246;PMS7003;6186;52.022;4.692;2023-04-06T02:06:37;16.33;15.00;8.33
12246;PMS7003;6186;52.022;4.692;2023-04-06T02:09:02;21.00;15.33;8.67
12246;PMS7003;6186;52.022;4.692;2023-04-06T02:11:28;16.00;15.33;8.00
12246;PMS7003;6186;52.022;4.692;2023-04-06T02:13:53;15.00;14.00;7.00
12246;PMS7003;6186;52.022;4.692;2023-04-06T02:16:19;16.33;15.67;9.33
12246;PMS7003;6186;52.022;4.692;2023-04-06T02:18:44;17.33;14.00;9.67
12246;PMS7003;6186;52.022;4.692;2023-04-06T02:21:09;17.67;16.33;10.33
12246;PMS7003;6186;52.022;4.692;2023-04-06T02:23:34;19.33;16.33;10.00
12246;PMS7003;6186;52.022;4.692;2023-04-06T02:25:59;13.33;13.00;8.00
12246;PMS7003;6186;52.022;4.692;2023-04-06T02:28:25;13.33;13.33;8.00
12246;PMS7003;6186;52.022;4.692;2023-04-06T02:30:50;16.33;14.33;7.00
12246;PMS7003;6186;52.022;4.692;2023-04-06T02:33:15;18.67;15.67;8.33
12246;PMS7003;6186;52.022;4.692;2023-04-06T02:35:40;15.00;15.00;8.33
12246;PMS7003;6186;52.022;4.692;2023-04-06T02:38:05;19.33;16.00;10.00
12246;PMS7003;6186;52.022;4.692;2023-04-06T02:40:31;20.00;18.33;11.00
12246;PMS7003;6186;52.022;4.692;2023-04-06T02:42:56;17.67;16.33;7.00
12246;PMS7003;6186;52.022;4.692;2023-04-06T02:45:21;15.00;15.00;9.00
12246;PMS7003;6186;52.022;4.692;2023-04-06T02:47:46;17.00;15.67;9.00
12246;PMS7003;6186;52.022;4.692;2023-04-06T02:50:12;16.67;16.33;9.67
12246;PMS7003;6186;52.022;4.692;2023-04-06T02:52:37;19.33;16.33;9.33
12246;PMS7003;6186;52.022;4.692;2023-04-06T02:55:02;19.33;16.00;10.00
12246;PMS7003;6186;52.022;4.692;2023-04-06T02:57:28;15.33;14.33;8.33
12246;PMS7003;6186;52.022;4.692;2023-04-06T02:59:53;16.33;14.33;7.33
12246;PMS7003;6186;52.022;4.692;2023-04-06T03:02:18;15.00;14.00;7.33
12246;PMS7003;6186;52.022;4.692;2023-04-06T03:04:43;17.67;16.33;10.00
12246;PMS7003;6186;52.022;4.692;2023-04-06T03:07:09;17.33;14.00;7.67
12246;PMS7003;6186;52.022;4.692;2023-04-06T03:09:36;19.00;18.00;11.00
12246;PMS7003;6186;52.022;4.692;2023-04-06T03:12:02;18.25;16.50;10.00
12246;PMS7003;6186;52.022;4.692;2023-04-06T03:14:27;19.67;16.33;11.00
12246;PMS7003;6186;52.022;4.692;2023-04-06T03:16:53;19.33;18.00;10.00
12246;PMS7003;6186;52.022;4.692;2023-04-06T03:19:18;18.67;18.00;10.00
12246;PMS7003;6186;52.022;4.692;2023-04-06T03:21:43;25.33;19.67;10.67
12246;PMS7003;6186;52.022;4.692;2023-04-06T03:24:08;22.67;20.00;11.33
12246;PMS7003;6186;52.022;4.692;2023-04-06T03:26:33;19.00;16.33;10.33
12246;PMS7003;6186;52.022;4.692;2023-04-06T03:28:59;24.67;18.33;11.33
12246;PMS7003;6186;52.022;4.692;2023-04-06T03:31:24;21.00;19.67;11.67
12246;PMS7003;6186;52.022;4.692;2023-04-06T03:33:49;26.67;22.67;11.33
12246;PMS7003;6186;52.022;4.692;2023-04-06T03:36:14;20.67;18.33;11.00
12246;PMS7003;6186;52.022;4.692;2023-04-06T03:38:40;20.67;18.67;10.67
12246;PMS7003;6186;52.022;4.692;2023-04-06T03:41:05;18.00;16.33;10.00
12246;PMS7003;6186;52.022;4.692;2023-04-06T03:43:30;23.67;20.00;10.00
12246;PMS7003;6186;52.022;4.692;2023-04-06T03:45:55;26.67;20.67;11.00
12246;PMS7003;6186;52.022;4.692;2023-04-06T03:48:20;22.67;19.67;12.33
12246;PMS7003;6186;52.022;4.692;2023-04-06T03:50:46;20.67;18.67;11.33
12246;PMS7003;6186;52.022;4.692;2023-04-06T03:53:11;20.33;18.67;11.67
12246;PMS7003;6186;52.022;4.692;2023-04-06T03:55:36;22.00;19.33;11.67
12246;PMS7003;6186;52.022;4.692;2023-04-06T03:58:01;19.33;18.67;10.00
12246;PMS7003;6186;52.022;4.692;2023-04-06T04:00:27;19.00;17.33;10.00
12246;PMS7003;6186;52.022;4.692;2023-04-06T04:02:52;22.33;19.00;12.33
12246;PMS7003;6186;52.022;4.692;2023-04-06T04:05:17;27.33;21.00;13.00
12246;PMS7003;6186;52.022;4.692;2023-04-06T04:07:42;22.67;21.00;11.00
12246;PMS7003;6186;52.022;4.692;2023-04-06T04:10:08;22.33;19.00;12.00
12246;PMS7003;6186;52.022;4.692;2023-04-06T04:12:33;26.67;21.00;12.33
12246;PMS7003;6186;52.022;4.692;2023-04-06T04:14:58;20.00;19.33;12.00
12246;PMS7003;6186;52.022;4.692;2023-04-06T04:17:24;21.00;20.00;11.67
12246;PMS7003;6186;52.022;4.692;2023-04-06T04:19:49;19.33;17.00;10.67
12246;PMS7003;6186;52.022;4.692;2023-04-06T04:22:14;24.00;19.67;11.67
12246;PMS7003;6186;52.022;4.692;2023-04-06T04:24:39;22.33;18.67;10.67
12246;PMS7003;6186;52.022;4.692;2023-04-06T04:27:05;24.00;19.33;11.00
12246;PMS7003;6186;52.022;4.692;2023-04-06T04:29:30;21.33;20.33;11.67
12246;PMS7003;6186;52.022;4.692;2023-04-06T04:31:55;19.33;19.00;12.33
12246;PMS7003;6186;52.022;4.692;2023-04-06T04:34:21;23.67;21.33;14.00
12246;PMS7003;6186;52.022;4.692;2023-04-06T04:36:46;23.67;20.33;11.67
12246;PMS7003;6186;52.022;4.692;2023-04-06T04:39:11;21.33;19.00;11.00
12246;PMS7003;6186;52.022;4.692;2023-04-06T04:41:36;22.67;16.33;10.33
12246;PMS7003;6186;52.022;4.692;2023-04-06T04:44:02;21.67;18.67;10.33
12246;PMS7003;6186;52.022;4.692;2023-04-06T04:46:27;22.00;20.33;13.00
12246;PMS7003;6186;52.022;4.692;2023-04-06T04:48:52;19.67;17.33;11.00
12246;PMS7003;6186;52.022;4.692;2023-04-06T04:51:17;18.50;18.00;11.50
12246;PMS7003;6186;52.022;4.692;2023-04-06T04:53:43;28.67;21.33;12.00
12246;PMS7003;6186;52.022;4.692;2023-04-06T04:56:08;22.00;20.33;12.33
12246;PMS7003;6186;52.022;4.692;2023-04-06T04:58:33;24.67;22.33;12.33
12246;PMS7003;6186;52.022;4.692;2023-04-06T05:00:58;23.00;19.33;11.00
12246;PMS7003;6186;52.022;4.692;2023-04-06T05:03:24;22.00;19.33;10.00
12246;PMS7003;6186;52.022;4.692;2023-04-06T05:05:51;20.75;18.25;10.25
12246;PMS7003;6186;52.022;4.692;2023-04-06T05:08:16;22.67;19.33;11.00
12246;PMS7003;6186;52.022;4.692;2023-04-06T05:10:42;20.00;19.00;11.33
12246;PMS7003;6186;52.022;4.692;2023-04-06T05:13:07;21.33;20.33;12.00
12246;PMS7003;6186;52.022;4.692;2023-04-06T05:15:33;22.33;20.67;12.33
12246;PMS7003;6186;52.022;4.692;2023-04-06T05:17:58;20.67;17.00;10.00
12246;PMS7003;6186;52.022;4.692;2023-04-06T05:20:23;21.67;20.00;11.00
12246;PMS7003;6186;52.022;4.692;2023-04-06T05:22:49;23.00;19.50;11.00
12246;PMS7003;6186;52.022;4.692;2023-04-06T05:25:15;19.67;19.67;10.67
12246;PMS7003;6186;52.022;4.692;2023-04-06T05:27:40;25.00;21.67;11.33
12246;PMS7003;6186;52.022;4.692;2023-04-06T05:30:06;20.67;18.33;10.67
12246;PMS7003;6186;52.022;4.692;2023-04-06T05:32:32;22.75;20.25;11.00
12246;PMS7003;6186;52.022;4.692;2023-04-06T05:34:57;22.00;19.67;11.00
12246;PMS7003;6186;52.022;4.692;2023-04-06T05:37:23;19.67;17.33;10.00
12246;PMS7003;6186;52.022;4.692;2023-04-06T05:39:48;20.00;19.33;12.33
12246;PMS7003;6186;52.022;4.692;2023-04-06T05:42:13;18.33;18.00;11.00
12246;PMS7003;6186;52.022;4.692;2023-04-06T05:44:38;17.67;17.00;9.33
12246;PMS7003;6186;52.022;4.692;2023-04-06T05:47:03;21.00;19.00;10.00
12246;PMS7003;6186;52.022;4.692;2023-04-06T05:49:29;22.67;19.00;11.00
12246;PMS7003;6186;52.022;4.692;2023-04-06T05:51:54;20.00;17.33;10.67
12246;PMS7003;6186;52.022;4.692;2023-04-06T05:54:20;21.00;16.67;10.00
12246;PMS7003;6186;52.022;4.692;2023-04-06T05:56:45;22.67;20.00;12.00
12246;PMS7003;6186;52.022;4.692;2023-04-06T05:59:10;21.00;20.00;11.00
12246;PMS7003;6186;52.022;4.692;2023-04-06T06:01:35;21.00;17.67;10.00
12246;PMS7003;6186;52.022;4.692;2023-04-06T06:04:01;21.00;19.00;11.00
12246;PMS7003;6186;52.022;4.692;2023-04-06T06:06:27;22.00;19.25;11.00
12246;PMS7003;6186;52.022;4.692;2023-04-06T06:08:53;24.25;18.00;9.25
12246;PMS7003;6186;52.022;4.692;2023-04-06T06:11:18;23.00;20.00;11.00
12246;PMS7003;6186;52.022;4.692;2023-04-06T06:13:43;23.33;19.00;10.33
12246;PMS7003;6186;52.022;4.692;2023-04-06T06:16:09;19.00;16.67;10.00
12246;PMS7003;6186;52.022;4.692;2023-04-06T06:18:34;19.00;17.67;10.00
12246;PMS7003;6186;52.022;4.692;2023-04-06T06:20:59;20.67;19.33;10.00
12246;PMS7003;6186;52.022;4.692;2023-04-06T06:23:24;20.33;17.67;11.33
12246;PMS7003;6186;52.022;4.692;2023-04-06T06:25:49;20.67;19.33;11.00
12246;PMS7003;6186;52.022;4.692;2023-04-06T06:28:15;22.67;20.33;11.67
12246;PMS7003;6186;52.022;4.692;2023-04-06T06:30:40;24.67;23.67;14.00
12246;PMS7003;6186;52.022;4.692;2023-04-06T06:33:05;20.33;19.67;10.33
12246;PMS7003;6186;52.022;4.692;2023-04-06T06:35:30;20.00;18.67;10.67
12246;PMS7003;6186;52.022;4.692;2023-04-06T06:37:56;24.33;21.00;11.67
12246;PMS7003;6186;52.022;4.692;2023-04-06T06:40:21;18.67;16.00;10.67
12246;PMS7003;6186;52.022;4.692;2023-04-06T06:42:46;20.00;19.00;10.67
12246;PMS7003;6186;52.022;4.692;2023-04-06T06:45:11;20.00;18.67;11.00
12246;PMS7003;6186;52.022;4.692;2023-04-06T06:47:37;21.33;19.67;11.00
12246;PMS7003;6186;52.022;4.692;2023-04-06T06:50:02;20.33;15.67;8.33
12246;PMS7003;6186;52.022;4.692;2023-04-06T06:52:27;26.33;23.67;13.33
12246;PMS7003;6186;52.022;4.692;2023-04-06T06:54:52;22.00;20.00;11.00
12246;PMS7003;6186;52.022;4.692;2023-04-06T06:57:18;18.67;16.33;9.00
12246;PMS7003;6186;52.022;4.692;2023-04-06T06:59:43;23.67;20.00;11.00
12246;PMS7003;6186;52.022;4.692;2023-04-06T07:02:08;23.33;21.00;12.00
12246;PMS7003;6186;52.022;4.692;2023-04-06T07:04:33;23.33;17.33;11.00
12246;PMS7003;6186;52.022;4.692;2023-04-06T07:06:59;24.67;20.00;12.00
12246;PMS7003;6186;52.022;4.692;2023-04-06T07:09:24;20.67;20.00;11.67
12246;PMS7003;6186;52.022;4.692;2023-04-06T07:11:49;19.67;17.67;11.00
12246;PMS7003;6186;52.022;4.692;2023-04-06T07:14:15;22.00;20.00;11.00
12246;PMS7003;6186;52.022;4.692;2023-04-06T07:16:41;22.25;20.75;11.25
12246;PMS7003;6186;52.022;4.692;2023-04-06T07:19:06;27.33;20.67;10.00
12246;PMS7003;6186;52.022;4.692;2023-04-06T07:21:31;19.33;18.33;12.00
12246;PMS7003;6186;52.022;4.692;2023-04-06T07:23:56;23.67;19.00;12.00
12246;PMS7003;6186;52.022;4.692;2023-04-06T07:26:21;25.00;22.33;11.67
12246;PMS7003;6186;52.022;4.692;2023-04-06T07:28:47;25.00;22.00;12.00
12246;PMS7003;6186;52.022;4.692;2023-04-06T07:31:12;28.33;23.33;13.67
12246;PMS7003;6186;52.022;4.692;2023-04-06T07:33:37;25.00;21.00;12.00
12246;PMS7003;6186;52.022;4.692;2023-04-06T07:36:02;26.00;23.33;13.00
12246;PMS7003;6186;52.022;4.692;2023-04-06T07:38:28;26.33;22.67;13.00
12246;PMS7003;6186;52.022;4.692;2023-04-06T07:40:53;26.33;23.33;13.00
12246;PMS7003;6186;52.022;4.692;2023-04-06T07:43:18;27.33;25.00;13.67
12246;PMS7003;6186;52.022;4.692;2023-04-06T07:45:44;28.33;23.67;15.00
12246;PMS7003;6186;52.022;4.692;2023-04-06T07:48:09;31.00;22.33;13.67
12246;PMS7003;6186;52.022;4.692;2023-04-06T07:50:34;28.00;25.00;14.00
12246;PMS7003;6186;52.022;4.692;2023-04-06T07:52:59;23.00;22.67;15.00
12246;PMS7003;6186;52.022;4.692;2023-04-06T07:55:25;27.00;23.67;14.67
12246;PMS7003;6186;52.022;4.692;2023-04-06T07:57:50;31.33;27.00;16.00
12246;PMS7003;6186;52.022;4.692;2023-04-06T08:00:15;27.00;23.33;14.33
12246;PMS7003;6186;52.022;4.692;2023-04-06T08:02:40;25.67;22.00;15.00
12246;PMS7003;6186;52.022;4.692;2023-04-06T08:05:06;25.67;22.00;15.00
12246;PMS7003;6186;52.022;4.692;2023-04-06T08:07:31;27.00;22.33;13.00
12246;PMS7003;6186;52.022;4.692;2023-04-06T08:09:56;30.33;26.67;15.00
12246;PMS7003;6186;52.022;4.692;2023-04-06T08:12:21;27.00;26.00;16.00
12246;PMS7003;6186;52.022;4.692;2023-04-06T08:14:47;29.00;25.67;16.00
12246;PMS7003;6186;52.022;4.692;2023-04-06T08:17:13;27.50;25.75;13.50
12246;PMS7003;6186;52.022;4.692;2023-04-06T08:19:38;29.67;25.00;13.00
12246;PMS7003;6186;52.022;4.692;2023-04-06T08:22:03;28.33;26.33;15.00
12246;PMS7003;6186;52.022;4.692;2023-04-06T08:24:28;26.33;25.67;16.00
12246;PMS7003;6186;52.022;4.692;2023-04-06T08:26:54;30.00;26.00;16.00
12246;PMS7003;6186;52.022;4.692;2023-04-06T08:29:19;27.67;26.00;16.33
12246;PMS7003;6186;52.022;4.692;2023-04-06T08:31:44;32.00;27.00;17.00
12246;PMS7003;6186;52.022;4.692;2023-04-06T08:34:09;30.00;26.67;16.00
12246;PMS7003;6186;52.022;4.692;2023-04-06T08:36:34;30.33;26.00;16.67
12246;PMS7003;6186;52.022;4.692;2023-04-06T08:39:00;35.67;28.67;16.33
12246;PMS7003;6186;52.022;4.692;2023-04-06T08:41:25;31.33;28.67;17.00
12246;PMS7003;6186;52.022;4.692;2023-04-06T08:43:54;30.50;27.00;16.00
12246;PMS7003;6186;52.022;4.692;2023-04-06T08:46:21;27.00;22.75;13.00
12246;PMS7003;6186;52.022;4.692;2023-04-06T08:48:48;28.50;24.00;14.00
12246;PMS7003;6186;52.022;4.692;2023-04-06T08:51:13;28.67;24.00;15.33
12246;PMS7003;6186;52.022;4.692;2023-04-06T08:53:40;28.50;24.50;13.00
12246;PMS7003;6186;52.022;4.692;2023-04-06T08:56:05;27.75;22.00;13.75
12246;PMS7003;6186;52.022;4.692;2023-04-06T08:58:35;26.00;24.00;14.00
12246;PMS7003;6186;52.022;4.692;2023-04-06T09:01:06;24.00;22.75;13.50
12246;PMS7003;6186;52.022;4.692;2023-04-06T09:03:32;22.25;22.25;12.75
12246;PMS7003;6186;52.022;4.692;2023-04-06T09:06:01;25.25;22.75;13.00
12246;PMS7003;6186;52.022;4.692;2023-04-06T09:08:27;19.00;18.40;11.40
12246;PMS7003;6186;52.022;4.692;2023-04-06T09:10:52;16.75;15.75;10.00
12246;PMS7003;6186;52.022;4.692;2023-04-06T09:13:18;17.25;15.50;8.50
12246;PMS7003;6186;52.022;4.692;2023-04-06T09:15:43;19.00;15.25;9.00
12246;PMS7003;6186;52.022;4.692;2023-04-06T09:18:08;17.25;15.75;9.75
12246;PMS7003;6186;52.022;4.692;2023-04-06T09:20:33;16.50;15.00;8.50
12246;PMS7003;6186;52.022;4.692;2023-04-06T09:22:59;14.75;13.50;7.00
12246;PMS7003;6186;52.022;4.692;2023-04-06T09:25:24;13.50;12.25;7.00
12246;PMS7003;6186;52.022;4.692;2023-04-06T09:27:58;19.25;16.50;8.00
12246;PMS7003;6186;52.022;4.692;2023-04-06T09:30:25;17.60;14.80;8.80
12246;PMS7003;6186;52.022;4.692;2023-04-06T09:32:51;14.00;13.00;8.00
12246;PMS7003;6186;52.022;4.692;2023-04-06T09:35:18;15.20;12.80;7.00
12246;PMS7003;6186;52.022;4.692;2023-04-06T09:37:45;14.75;13.50;8.00
12246;PMS7003;6186;52.022;4.692;2023-04-06T09:40:12;13.40;11.60;7.20
12246;PMS7003;6186;52.022;4.692;2023-04-06T09:42:37;11.20;10.60;6.00
12246;PMS7003;6186;52.022;4.692;2023-04-06T09:45:10;12.60;9.60;5.20
12246;PMS7003;6186;52.022;4.692;2023-04-06T09:47:35;9.00;8.00;4.00
12246;PMS7003;6186;52.022;4.692;2023-04-06T09:50:02;8.60;7.60;4.00
12246;PMS7003;6186;52.022;4.692;2023-04-06T09:52:31;10.00;9.40;4.80
12246;PMS7003;6186;52.022;4.692;2023-04-06T09:55:02;9.80;9.00;5.20
12246;PMS7003;6186;52.022;4.692;2023-04-06T09:57:29;9.00;9.00;5.00
12246;PMS7003;6186;52.022;4.692;2023-04-06T10:00:08;13.00;10.40;6.00
12246;PMS7003;6186;52.022;4.692;2023-04-06T10:05:17;10.80;10.40;5.60
12246;PMS7003;6186;52.022;4.692;2023-04-06T10:07:48;9.60;8.60;4.80
12246;PMS7003;6186;52.022;4.692;2023-04-06T10:10:15;9.20;9.00;5.00
12246;PMS7003;6186;52.022;4.692;2023-04-06T10:12:41;8.75;7.75;4.00
12246;PMS7003;6186;52.022;4.692;2023-04-06T10:15:07;10.50;9.00;5.50
12246;PMS7003;6186;52.022;4.692;2023-04-06T10:17:33;12.00;10.40;5.20
12246;PMS7003;6186;52.022;4.692;2023-04-06T10:19:59;11.50;8.75;3.75
12246;PMS7003;6186;52.022;4.692;2023-04-06T10:22:41;9.20;8.40;4.80
12246;PMS7003;6186;52.022;4.692;2023-04-06T10:25:14;10.20;8.20;4.80
12246;PMS7003;6186;52.022;4.692;2023-04-06T10:27:39;11.75;9.00;6.00
12246;PMS7003;6186;52.022;4.692;2023-04-06T10:30:05;11.50;9.25;4.75
12246;PMS7003;6186;52.022;4.692;2023-04-06T10:32:34;10.40;8.40;4.80
12246;PMS7003;6186;52.022;4.692;2023-04-06T10:35:11;8.40;8.00;4.20
12246;PMS7003;6186;52.022;4.692;2023-04-06T10:40:31;10.40;9.40;6.00
12246;PMS7003;6186;52.022;4.692;2023-04-06T10:43:06;9.00;9.00;5.75
12246;PMS7003;6186;52.022;4.692;2023-04-06T10:45:36;12.40;11.00;6.00
12246;PMS7003;6186;52.022;4.692;2023-04-06T10:48:04;12.00;10.00;6.00
12246;PMS7003;6186;52.022;4.692;2023-04-06T10:50:43;9.60;9.40;4.80
12246;PMS7003;6186;52.022;4.692;2023-04-06T10:53:10;9.80;9.60;5.20
12246;PMS7003;6186;52.022;4.692;2023-04-06T10:55:35;9.00;8.50;4.75
12246;PMS7003;6186;52.022;4.692;2023-04-06T10:58:06;12.80;11.60;6.20
12246;PMS7003;6186;52.022;4.692;2023-04-06T11:00:31;11.60;10.60;6.00
12246;PMS7003;6186;52.022;4.692;2023-04-06T11:03:00;10.25;9.50;6.00
12246;PMS7003;6186;52.022;4.692;2023-04-06T11:05:25;10.00;9.80;6.00
12246;PMS7003;6186;52.022;4.692;2023-04-06T11:07:50;11.25;9.25;6.00
12246;PMS7003;6186;52.022;4.692;2023-04-06T11:10:20;11.75;11.50;6.00
12246;PMS7003;6186;52.022;4.692;2023-04-06T11:12:51;10.40;9.40;5.80
12246;PMS7003;6186;52.022;4.692;2023-04-06T11:15:19;9.60;8.00;4.20
12246;PMS7003;6186;52.022;4.692;2023-04-06T11:17:44;10.00;10.00;6.00
12246;PMS7003;6186;52.022;4.692;2023-04-06T11:20:10;10.00;9.00;5.50
12246;PMS7003;6186;52.022;4.692;2023-04-06T11:22:36;11.00;10.40;7.00
12246;PMS7003;6186;52.022;4.692;2023-04-06T11:25:07;10.75;9.50;6.00
12246;PMS7003;6186;52.022;4.692;2023-04-06T11:27:33;14.80;12.00;6.00
12246;PMS7003;6186;52.022;4.692;2023-04-06T11:30:00;13.40;13.00;7.00
12246;PMS7003;6186;52.022;4.692;2023-04-06T11:32:25;11.80;10.20;6.00
12246;PMS7003;6186;52.022;4.692;2023-04-06T11:34:51;12.75;10.25;6.00
12246;PMS7003;6186;52.022;4.692;2023-04-06T11:37:16;14.50;11.75;6.25
12246;PMS7003;6186;52.022;4.692;2023-04-06T11:39:48;13.25;10.00;6.00
12246;PMS7003;6186;52.022;4.692;2023-04-06T11:42:21;14.40;12.00;7.00
12246;PMS7003;6186;52.022;4.692;2023-04-06T11:44:49;13.00;12.20;7.00
12246;PMS7003;6186;52.022;4.692;2023-04-06T11:47:28;13.40;11.80;6.80
12246;PMS7003;6186;52.022;4.692;2023-04-06T11:49:55;14.20;12.40;7.00
12246;PMS7003;6186;52.022;4.692;2023-04-06T11:52:29;12.20;10.60;6.00
12246;PMS7003;6186;52.022;4.692;2023-04-06T11:54:54;13.00;12.00;6.00
12246;PMS7003;6186;52.022;4.692;2023-04-06T11:57:21;12.00;10.00;6.00
12246;PMS7003;6186;52.022;4.692;2023-04-06T11:59:47;10.20;9.40;6.00
12246;PMS7003;6186;52.022;4.692;2023-04-06T12:02:12;12.00;11.75;6.00
12246;PMS7003;6186;52.022;4.692;2023-04-06T12:04:37;13.00;11.00;6.00
12246;PMS7003;6186;52.022;4.692;2023-04-06T12:07:03;12.75;12.00;6.00
12246;PMS7003;6186;52.022;4.692;2023-04-06T12:09:28;9.00;9.00;6.00
12246;PMS7003;6186;52.022;4.692;2023-04-06T12:11:54;9.75;9.75;6.75
12246;PMS7003;6186;52.022;4.692;2023-04-06T12:14:20;11.75;10.25;6.00
12246;PMS7003;6186;52.022;4.692;2023-04-06T12:16:46;10.80;10.80;6.00
12246;PMS7003;6186;52.022;4.692;2023-04-06T12:19:11;9.00;8.00;4.25
12246;PMS7003;6186;52.022;4.692;2023-04-06T12:21:36;9.75;8.50;4.25
12246;PMS7003;6186;52.022;4.692;2023-04-06T12:24:02;9.00;9.00;4.25
12246;PMS7003;6186;52.022;4.692;2023-04-06T12:26:27;12.00;12.00;6.00
12246;PMS7003;6186;52.022;4.692;2023-04-06T12:28:52;10.75;9.00;5.00
12246;PMS7003;6186;52.022;4.692;2023-04-06T12:31:18;10.25;9.00;4.00
12246;PMS7003;6186;52.022;4.692;2023-04-06T12:33:49;8.80;8.00;4.80
12246;PMS7003;6186;52.022;4.692;2023-04-06T12:36:16;10.40;9.20;4.40
12246;PMS7003;6186;52.022;4.692;2023-04-06T12:38:42;12.20;9.00;5.40
12246;PMS7003;6186;52.022;4.692;2023-04-06T12:41:07;9.00;8.25;4.00
12246;PMS7003;6186;52.022;4.692;2023-04-06T12:43:33;11.75;9.75;4.00
12246;PMS7003;6186;52.022;4.692;2023-04-06T12:45:58;9.00;9.00;4.00
12246;PMS7003;6186;52.022;4.692;2023-04-06T12:48:23;12.00;9.00;4.00
12246;PMS7003;6186;52.022;4.692;2023-04-06T12:50:58;10.00;9.00;4.75
12246;PMS7003;6186;52.022;4.692;2023-04-06T12:53:25;10.60;9.80;6.60
12246;PMS7003;6186;52.022;4.692;2023-04-06T12:55:51;12.00;10.00;6.00
12246;PMS7003;6186;52.022;4.692;2023-04-06T12:58:18;8.60;8.60;5.80
12246;PMS7003;6186;52.022;4.692;2023-04-06T13:00:43;12.00;11.00;6.50
12246;PMS7003;6186;52.022;4.692;2023-04-06T13:03:09;12.00;10.25;6.00
12246;PMS7003;6186;52.022;4.692;2023-04-06T13:05:34;11.25;9.00;4.25
12246;PMS7003;6186;52.022;4.692;2023-04-06T13:07:59;12.00;11.25;6.00
12246;PMS7003;6186;52.022;4.692;2023-04-06T13:10:25;12.75;9.00;5.00
12246;PMS7003;6186;52.022;4.692;2023-04-06T13:12:50;12.75;9.75;5.50
12246;PMS7003;6186;52.022;4.692;2023-04-06T13:15:15;10.25;9.00;4.75
12246;PMS7003;6186;52.022;4.692;2023-04-06T13:17:42;12.00;10.00;6.00
12246;PMS7003;6186;52.022;4.692;2023-04-06T13:20:08;11.25;9.00;6.00
12246;PMS7003;6186;52.022;4.692;2023-04-06T13:22:33;12.00;10.25;6.00
12246;PMS7003;6186;52.022;4.692;2023-04-06T13:24:59;9.50;8.50;6.00
12246;PMS7003;6186;52.022;4.692;2023-04-06T13:27:24;11.00;10.75;6.00
12246;PMS7003;6186;52.022;4.692;2023-04-06T13:29:49;13.25;8.25;5.25
12246;PMS7003;6186;52.022;4.692;2023-04-06T13:32:14;12.25;9.75;6.00
12246;PMS7003;6186;52.022;4.692;2023-04-06T13:34:39;12.50;12.00;6.00
12246;PMS7003;6186;52.022;4.692;2023-04-06T13:37:05;8.75;8.75;4.00
12246;PMS7003;6186;52.022;4.692;2023-04-06T13:39:31;9.75;9.25;4.00
12246;PMS7003;6186;52.022;4.692;2023-04-06T13:41:56;12.00;10.00;6.00
12246;PMS7003;6186;52.022;4.692;2023-04-06T13:44:21;10.25;10.00;6.00
12246;PMS7003;6186;52.022;4.692;2023-04-06T13:46:47;12.00;10.50;6.75
12246;PMS7003;6186;52.022;4.692;2023-04-06T13:49:12;11.50;9.75;7.00
12246;PMS7003;6186;52.022;4.692;2023-04-06T13:51:38;10.40;9.80;4.40
12246;PMS7003;6186;52.022;4.692;2023-04-06T13:54:03;9.00;9.00;5.75
12246;PMS7003;6186;52.022;4.692;2023-04-06T13:56:29;11.50;11.00;5.50
12246;PMS7003;6186;52.022;4.692;2023-04-06T13:58:54;13.25;12.00;6.25
12246;PMS7003;6186;52.022;4.692;2023-04-06T14:01:21;12.20;11.60;6.60
12246;PMS7003;6186;52.022;4.692;2023-04-06T14:03:46;12.00;8.75;5.00